Lafayette, Minnesota
Current Conditions -  °F | °C
As of 12:34 PM on Thursday 30 Oct 2014 (Local Time) from KULM Reporting Station
Clear Clear  
Wind Chill: 46°   Ceiling: Unl
Heat Index: 48°   Visibility: 10mi
Dew Point: 41°   Wind: 6mph
Humidity: 76%   Direction: 360°N
Pressure: 30.09"   Gusts: NA
Location:  44.45°N, 94.4°W
Report Text: KULM 301734Z AUTO 36005KT 10SM CLR 09/05 A3009 RMK AO2
Loading
Personal Weather Stations






























Interactive Weather Map
Tropical Storm Tracking
New forecast layout! Learn more

10-Day Weather Forecast

Advertisements
Track Severe Weather on mobile